Time;durP1;ratioP1;P1;durP2;ratioP2;P2;SDS_P1;SDS_P2;PMS_P1;PMS_P2;Temp;Humidity;BMP_temperature;BMP_pressure;BME280_temperature;BME280_humidity;BME280_pressure;Samples;Min_cycle;Max_cycle;Signal;HPM_P1;HPM_P2
2022/09/02 00:01:16;;;;;;;8.02;2.55;;;;;;;24.67;44.89;101749.41;5030381;28;20112;-70
2022/09/02 00:03:42;;;;;;;6.57;2.45;;;;;;;24.72;44.47;101749.06;5031987;28;20040;-70
2022/09/02 00:06:07;;;;;;;6.57;3.10;;;;;;;24.73;44.54;101747.06;5031790;28;20021;-70
2022/09/02 00:08:33;;;;;;;5.00;2.75;;;;;;;24.75;44.61;101736.31;5031945;28;20028;-80
2022/09/02 00:11:01;;;;;;;7.15;2.72;;;;;;;24.76;44.48;101735.13;5031928;28;20386;-71
2022/09/02 00:13:28;;;;;;;5.32;2.75;;;;;;;24.72;44.63;101735.09;5030590;28;20511;-70
2022/09/02 00:15:54;;;;;;;7.47;2.65;;;;;;;24.81;44.34;101731.97;5032127;28;20030;-70
2022/09/02 00:18:20;;;;;;;6.88;2.83;;;;;;;24.82;44.46;101737.16;5031276;28;20060;-70
2022/09/02 00:20:47;;;;;;;7.53;2.92;;;;;;;24.82;44.71;101730.78;5031371;28;20033;-80
2022/09/02 00:23:14;;;;;;;7.25;2.90;;;;;;;24.83;44.42;101716.41;5031560;28;20041;-83
2022/09/02 00:25:43;;;;;;;3.42;2.17;;;;;;;24.83;44.67;101722.00;5033619;28;20018;-83
2022/09/02 00:28:10;;;;;;;6.47;2.60;;;;;;;24.88;44.36;101718.84;5035340;28;20082;-71
2022/09/02 00:30:36;;;;;;;7.60;2.72;;;;;;;24.86;44.82;101718.44;5035574;28;20543;-71
2022/09/02 00:33:02;;;;;;;7.55;2.88;;;;;;;24.86;44.75;101706.44;5035858;28;20109;-71
2022/09/02 00:35:28;;;;;;;4.65;2.90;;;;;;;24.90;44.36;101712.88;5035525;28;20021;-83
2022/09/02 00:37:53;;;;;;;6.00;2.90;;;;;;;24.88;44.69;101715.25;5035190;28;20025;-71
2022/09/02 00:40:19;;;;;;;4.97;2.92;;;;;;;24.91;44.72;101703.28;5035326;28;20436;-71
2022/09/02 00:42:45;;;;;;;7.22;2.60;;;;;;;24.90;44.44;101699.69;5035340;28;20055;-71
2022/09/02 00:45:11;;;;;;;5.72;2.78;;;;;;;24.91;44.67;101692.91;5035026;28;20072;-71
2022/09/02 00:47:37;;;;;;;5.95;3.05;;;;;;;24.91;44.42;101690.13;5035289;28;20033;-72
2022/09/02 00:50:07;;;;;;;8.32;3.38;;;;;;;24.89;44.57;101689.72;5035297;28;20033;-71
2022/09/02 00:52:40;;;;;;;4.97;2.40;;;;;;;24.88;44.55;101676.13;5035280;28;20036;-72
2022/09/02 00:55:12;;;;;;;6.88;3.00;;;;;;;24.80;44.98;101674.47;5035071;28;20561;-71
2022/09/02 00:58:04;;;;;;;8.90;3.30;;;;;;;24.75;45.29;101678.41;5027186;28;20121;-82
2022/09/02 01:00:34;;;;;;;9.00;3.33;;;;;;;24.78;45.26;101674.84;5025318;28;20026;-71
2022/09/02 01:03:05;;;;;;;7.45;3.10;;;;;;;24.76;45.05;101663.25;5022537;28;20041;-71
2022/09/02 01:05:35;;;;;;;9.63;3.08;;;;;;;24.77;45.31;101664.84;5023861;28;20025;-77
2022/09/02 01:08:06;;;;;;;4.60;2.33;;;;;;;24.88;45.20;101662.94;5023307;28;20040;-71
2022/09/02 01:10:33;;;;;;;5.97;2.70;;;;;;;24.91;45.19;101662.16;5023633;28;20423;-83
2022/09/02 01:13:06;;;;;;;9.20;2.30;;;;;;;24.70;45.55;101662.00;5024398;28;20030;-71
2022/09/02 01:15:36;;;;;;;6.90;3.40;;;;;;;24.73;45.93;101660.44;5024889;28;20026;-76
2022/09/02 01:18:04;;;;;;;6.60;2.97;;;;;;;24.72;46.15;101644.88;5022951;28;20444;-78
2022/09/02 01:20:30;;;;;;;7.07;2.50;;;;;;;24.76;46.06;101648.47;5022818;28;20151;-83
2022/09/02 01:22:57;;;;;;;4.70;2.67;;;;;;;24.73;46.32;101647.28;5025599;28;20026;-81
2022/09/02 01:25:29;;;;;;;9.77;2.60;;;;;;;24.72;46.29;101645.66;5023796;28;20021;-78
2022/09/02 01:28:02;;;;;;;6.80;2.92;;;;;;;24.69;46.93;101646.44;5024237;28;20033;-71
2022/09/02 01:30:28;;;;;;;8.80;2.70;;;;;;;24.74;46.40;101639.69;5023991;28;20583;-71
2022/09/02 01:32:54;;;;;;;7.57;2.38;;;;;;;24.75;46.47;101632.91;5022423;28;20530;-83
2022/09/02 01:35:20;;;;;;;5.22;3.05;;;;;;;24.76;46.60;101634.50;5019800;28;20033;-70
2022/09/02 01:37:47;;;;;;;6.80;3.40;;;;;;;24.79;46.41;101619.78;5022911;28;20380;-70
2022/09/02 01:40:16;;;;;;;7.65;2.60;;;;;;;24.77;46.63;101625.72;5020602;28;20029;-70
2022/09/02 01:42:43;;;;;;;7.30;2.55;;;;;;;24.80;46.89;101613.78;5023309;28;20025;-70
2022/09/02 01:45:09;;;;;;;13.35;3.20;;;;;;;24.85;46.57;101613.41;5021678;28;20162;-81
2022/09/02 01:47:36;;;;;;;6.93;2.88;;;;;;;24.85;46.80;101612.59;5023632;28;20021;-81
2022/09/02 01:50:05;;;;;;;6.32;2.97;;;;;;;24.80;46.94;101613.78;5022231;28;20034;-78
2022/09/02 01:52:32;;;;;;;8.13;2.85;;;;;;;24.78;47.23;101612.56;5020998;28;20388;-71
2022/09/02 01:54:57;;;;;;;5.63;2.42;;;;;;;24.76;47.71;101612.16;5021908;28;20025;-72
2022/09/02 01:57:23;;;;;;;8.45;2.92;;;;;;;24.77;47.88;101608.94;5021717;28;20480;-71
2022/09/02 01:59:50;;;;;;;10.07;3.13;;;;;;;24.80;47.77;101613.78;5022488;28;20032;-70
2022/09/02 02:02:18;;;;;;;7.20;2.38;;;;;;;24.83;47.44;101607.41;5024068;28;20479;-71
2022/09/02 02:04:45;;;;;;;9.48;2.90;;;;;;;24.90;47.74;101612.25;5023032;28;20377;-83
2022/09/02 02:07:13;;;;;;;8.57;3.10;;;;;;;24.95;47.66;101602.69;5024516;28;20025;-70
2022/09/02 02:09:40;;;;;;;5.55;3.00;;;;;;;24.90;47.98;101601.06;5023066;28;20025;-70
2022/09/02 02:12:06;;;;;;;5.85;2.60;;;;;;;24.90;48.15;101590.69;5023691;28;20014;-70
2022/09/02 02:14:32;;;;;;;7.22;2.70;;;;;;;24.96;47.86;101595.91;5023399;28;20037;-70
2022/09/02 02:16:58;;;;;;;13.63;3.45;;;;;;;24.99;48.11;101592.31;5025888;28;20028;-69
2022/09/02 02:19:23;;;;;;;6.35;2.55;;;;;;;25.03;47.71;101593.16;5032324;28;20025;-70
2022/09/02 02:21:49;;;;;;;7.57;2.70;;;;;;;25.05;47.80;101588.00;5033407;28;20036;-69
2022/09/02 02:24:16;;;;;;;8.10;2.60;;;;;;;25.05;47.87;101590.78;5032130;28;20022;-70
2022/09/02 02:26:41;;;;;;;7.93;3.42;;;;;;;25.06;48.33;101584.78;5033068;28;20112;-69
2022/09/02 02:29:08;;;;;;;6.30;3.40;;;;;;;25.06;48.18;101576.41;5033284;28;20097;-69
2022/09/02 02:31:34;;;;;;;7.25;2.90;;;;;;;25.05;48.63;101574.81;5033547;28;20022;-70
2022/09/02 02:34:00;;;;;;;10.07;4.43;;;;;;;25.06;48.33;101570.81;5033461;28;20076;-76
2022/09/02 02:36:26;;;;;;;8.40;3.25;;;;;;;25.05;48.93;101574.00;5032946;28;20060;-70
2022/09/02 02:38:52;;;;;;;5.40;2.42;;;;;;;25.02;48.78;101571.97;5033188;28;20025;-69
2022/09/02 02:41:18;;;;;;;6.03;2.58;;;;;;;25.03;48.84;101566.03;5033167;28;20044;-69
2022/09/02 02:43:43;;;;;;;8.77;2.67;;;;;;;25.04;49.19;101561.22;5033210;28;20056;-83
2022/09/02 02:46:10;;;;;;;7.32;3.00;;;;;;;25.04;49.07;101575.22;5032876;28;20152;-71
2022/09/02 02:48:36;;;;;;;6.45;2.90;;;;;;;25.07;49.20;101564.03;5031906;28;20033;-70
2022/09/02 02:51:03;;;;;;;11.05;2.97;;;;;;;25.09;49.32;101564.47;5033290;28;20041;-69
2022/09/02 02:53:30;;;;;;;8.13;3.33;;;;;;;25.11;48.98;101562.06;5033120;28;20041;-69
2022/09/02 02:55:58;;;;;;;9.05;3.03;;;;;;;25.09;49.43;101553.28;5032710;28;20037;-70
2022/09/02 02:58:24;;;;;;;8.15;2.63;;;;;;;25.10;49.11;101560.47;5032594;28;20033;-70
2022/09/02 03:00:50;;;;;;;5.32;2.55;;;;;;;25.13;49.29;101556.06;5033028;28;20535;-70
2022/09/02 03:03:21;;;;;;;8.18;3.25;;;;;;;25.12;49.55;101551.69;5032712;28;20029;-69
2022/09/02 03:05:48;;;;;;;10.65;3.47;;;;;;;25.13;49.48;101553.28;5032765;28;20033;-69
2022/09/02 03:08:14;;;;;;;9.63;3.70;;;;;;;25.09;49.53;101544.88;5032434;28;20427;-69
2022/09/02 03:10:42;;;;;;;11.02;4.03;;;;;;;25.11;49.56;101542.50;5032731;28;20057;-69
2022/09/02 03:13:09;;;;;;;8.77;3.42;;;;;;;25.05;49.66;101546.84;5031447;28;20033;-70
2022/09/02 03:15:37;;;;;;;11.82;3.55;;;;;;;24.95;50.66;101542.00;5032615;28;20075;-70
2022/09/02 03:18:04;;;;;;;14.70;3.47;;;;;;;25.04;49.66;101542.47;5032311;28;20472;-69
2022/09/02 03:20:30;;;;;;;8.23;3.25;;;;;;;25.11;49.75;101544.47;5032450;28;20495;-70
2022/09/02 03:22:57;;;;;;;11.27;3.05;;;;;;;25.11;49.91;101530.50;5032569;28;20022;-69
2022/09/02 03:25:25;;;;;;;14.60;4.32;;;;;;;25.06;50.17;101528.88;5032490;28;20021;-69
2022/09/02 03:27:50;;;;;;;11.50;2.83;;;;;;;25.11;49.91;101528.50;5032131;28;20033;-69
2022/09/02 03:30:20;;;;;;;10.60;3.50;;;;;;;25.10;49.68;101520.53;5032532;28;20167;-82
2022/09/02 03:32:46;;;;;;;14.68;3.95;;;;;;;25.12;49.93;101523.72;5031204;28;20013;-69
2022/09/02 03:35:16;;;;;;;14.43;4.15;;;;;;;25.04;49.94;101508.91;5031106;28;20507;-70
2022/09/02 03:37:42;;;;;;;16.13;4.47;;;;;;;25.09;50.12;101502.94;5031825;28;20033;-70
2022/09/02 03:40:15;;;;;;;12.82;4.15;;;;;;;25.02;49.92;101502.88;5032346;28;20045;-69
2022/09/02 03:42:41;;;;;;;15.40;4.38;;;;;;;24.99;50.56;101492.47;5032396;28;20562;-73
2022/09/02 03:45:09;;;;;;;12.10;3.40;;;;;;;25.00;50.01;101490.47;5032119;28;20085;-69
2022/09/02 03:47:35;;;;;;;14.98;4.32;;;;;;;25.00;50.19;101487.69;5031982;28;20552;-69
2022/09/02 03:50:03;;;;;;;13.57;3.63;;;;;;;24.94;50.71;101490.06;5032590;28;20364;-70
2022/09/02 03:52:29;;;;;;;10.30;4.05;;;;;;;24.88;50.80;101489.66;5032334;28;20079;-69
2022/09/02 03:54:55;;;;;;;10.80;4.25;;;;;;;25.00;50.44;101482.09;5032214;28;20483;-69
2022/09/02 03:57:24;;;;;;;12.15;4.50;;;;;;;24.91;50.50;101480.47;5032006;28;20061;-75
2022/09/02 03:59:50;;;;;;;12.40;3.33;;;;;;;24.95;50.44;101480.50;5034242;28;20086;-70
2022/09/02 04:02:16;;;;;;;14.52;4.28;;;;;;;24.90;50.65;101484.47;5036174;28;20056;-69
2022/09/02 04:04:41;;;;;;;15.23;4.15;;;;;;;24.88;50.71;101478.47;5035862;28;20087;-69
2022/09/02 04:07:07;;;;;;;14.20;4.30;;;;;;;24.90;50.58;101469.69;5035757;28;20029;-69
2022/09/02 04:09:33;;;;;;;10.25;4.00;;;;;;;24.99;50.46;101469.31;5036008;28;20040;-70
2022/09/02 04:11:58;;;;;;;10.57;4.07;;;;;;;24.94;50.51;101472.47;5036178;28;20068;-71
2022/09/02 04:14:25;;;;;;;14.25;4.78;;;;;;;24.87;51.15;101473.28;5035946;28;20498;-69
2022/09/02 04:16:51;;;;;;;17.58;4.78;;;;;;;24.96;50.83;101470.91;5035626;28;20025;-70
2022/09/02 04:19:16;;;;;;;10.43;4.28;;;;;;;24.90;51.00;101467.69;5036033;28;20096;-77
2022/09/02 04:21:42;;;;;;;17.83;4.88;;;;;;;24.89;50.79;101456.91;5035751;28;20037;-70
2022/09/02 04:24:10;;;;;;;11.80;4.25;;;;;;;24.87;51.25;101465.69;5034480;28;20022;-69
2022/09/02 04:26:36;;;;;;;13.55;4.13;;;;;;;24.88;51.14;101470.09;5035559;28;20032;-73
2022/09/02 04:29:02;;;;;;;11.60;4.30;;;;;;;24.94;50.80;101464.91;5033965;28;20069;-69
2022/09/02 04:31:30;;;;;;;13.82;4.47;;;;;;;25.00;50.70;101465.31;5035205;28;20033;-70
2022/09/02 04:33:57;;;;;;;12.68;4.13;;;;;;;25.01;50.85;101461.31;5035573;28;20022;-69
2022/09/02 04:36:23;;;;;;;11.88;4.70;;;;;;;24.99;50.31;101456.13;5035230;28;20028;-69
2022/09/02 04:38:50;;;;;;;10.77;4.20;;;;;;;24.98;50.79;101460.13;5035355;28;20033;-69
2022/09/02 04:41:19;;;;;;;12.95;4.18;;;;;;;25.03;50.75;101456.97;5035381;28;20084;-70
2022/09/02 04:43:45;;;;;;;13.55;4.25;;;;;;;24.95;50.95;101451.75;5032212;28;20445;-69
2022/09/02 04:46:13;;;;;;;18.75;4.93;;;;;;;25.03;50.91;101458.94;5034768;28;20069;-69
2022/09/02 04:48:39;;;;;;;10.15;4.00;;;;;;;24.98;50.74;101445.34;5033996;28;20022;-69
2022/09/02 04:51:08;;;;;;;8.95;3.53;;;;;;;25.01;50.28;101450.13;5035010;28;20029;-69
2022/09/02 04:53:34;;;;;;;8.23;2.93;;;;;;;25.01;50.02;101444.53;5035125;28;20030;-69
2022/09/02 04:56:03;;;;;;;5.55;3.35;;;;;;;24.91;50.04;101437.72;5034763;28;20087;-70
2022/09/02 04:58:28;;;;;;;7.13;2.90;;;;;;;24.87;49.57;101440.53;5035100;28;20477;-70
2022/09/02 05:00:54;;;;;;;9.25;4.25;;;;;;;24.76;50.13;101439.69;5033776;28;20029;-69
2022/09/02 05:03:19;;;;;;;9.32;3.47;;;;;;;24.60;50.05;101448.41;5033973;28;20025;-82
2022/09/02 05:05:47;;;;;;;7.78;3.90;;;;;;;24.73;49.76;101436.88;5017340;28;20560;-69
2022/09/02 05:08:13;;;;;;;9.70;3.38;;;;;;;24.68;49.62;101431.66;5034685;28;20034;-70
2022/09/02 05:10:39;;;;;;;9.25;3.70;;;;;;;24.47;50.19;101426.78;5034059;28;20022;-69
2022/09/02 05:13:05;;;;;;;13.43;3.85;;;;;;;24.65;49.61;101424.88;5035088;28;20025;-69
2022/09/02 05:15:32;;;;;;;11.27;4.10;;;;;;;24.70;49.32;101424.47;5034508;28;20022;-70
2022/09/02 05:17:57;;;;;;;7.63;3.60;;;;;;;24.71;48.97;101420.50;5033460;28;20030;-69
2022/09/02 05:20:23;;;;;;;8.43;3.33;;;;;;;24.61;49.20;101422.06;5034645;28;20032;-81
2022/09/02 05:22:49;;;;;;;12.48;4.20;;;;;;;24.65;49.11;101421.28;5034594;28;20152;-70
2022/09/02 05:25:15;;;;;;;8.60;4.65;;;;;;;24.58;49.21;101417.25;5034516;28;20373;-70
2022/09/02 05:27:41;;;;;;;7.93;3.45;;;;;;;24.65;48.63;101422.09;5034589;28;20025;-69
2022/09/02 05:30:07;;;;;;;8.05;3.67;;;;;;;24.57;49.17;101415.66;5034256;28;20025;-69
2022/09/02 05:32:33;;;;;;;6.13;3.20;;;;;;;24.60;48.76;101414.06;5034427;28;20057;-70
2022/09/02 05:34:59;;;;;;;11.95;3.33;;;;;;;24.58;49.09;101408.09;5034422;28;20025;-69
2022/09/02 05:37:25;;;;;;;11.07;3.90;;;;;;;24.50;49.01;101415.63;5034093;28;20099;-69
2022/09/02 05:39:51;;;;;;;10.82;3.45;;;;;;;24.53;48.88;101422.41;5034204;28;20025;-70
2022/09/02 05:42:19;;;;;;;9.32;4.07;;;;;;;24.51;49.19;101420.03;5034273;28;20378;-69
2022/09/02 05:44:45;;;;;;;12.23;4.40;;;;;;;24.55;49.16;101418.03;5034054;28;20077;-69
2022/09/02 05:47:11;;;;;;;6.75;4.05;;;;;;;24.48;49.40;101423.59;5032736;28;20053;-69
2022/09/02 05:49:37;;;;;;;7.82;4.90;;;;;;;24.62;48.99;101418.06;5032892;28;20049;-70
2022/09/02 05:52:04;;;;;;;13.50;4.78;;;;;;;24.61;49.00;101422.06;5034095;28;20108;-70
2022/09/02 05:54:35;;;;;;;11.00;4.50;;;;;;;24.69;48.59;101422.88;5034113;28;20525;-71
2022/09/02 05:57:07;;;;;;;9.88;5.55;;;;;;;24.65;48.62;101416.50;5033972;28;20029;-78
2022/09/02 05:59:37;;;;;;;9.38;5.25;;;;;;;24.63;49.23;101419.66;5034278;28;20029;-83
2022/09/02 06:02:03;;;;;;;12.10;4.97;;;;;;;24.55;49.13;101417.22;5034126;28;20026;-81
2022/09/02 06:04:28;;;;;;;10.25;4.90;;;;;;;24.58;49.33;101410.88;5033885;28;20472;-69
2022/09/02 06:06:54;;;;;;;10.82;4.65;;;;;;;24.67;49.26;101418.88;5033472;28;20032;-69
2022/09/02 06:09:22;;;;;;;10.52;5.00;;;;;;;24.66;49.06;101401.31;5032485;28;20033;-69
2022/09/02 06:11:48;;;;;;;15.77;6.53;;;;;;;24.61;49.45;101410.88;5033761;28;20132;-69
2022/09/02 06:14:16;;;;;;;11.85;5.95;;;;;;;24.53;49.65;101395.28;5033601;28;20025;-70
2022/09/02 06:16:43;;;;;;;10.65;5.50;;;;;;;24.46;50.05;101386.88;5033355;28;20113;-80
2022/09/02 06:19:09;;;;;;;10.05;6.68;;;;;;;24.58;49.93;101389.31;5033267;28;20175;-70
2022/09/02 06:21:36;;;;;;;9.85;5.90;;;;;;;24.48;50.55;101389.25;5033582;28;20025;-70
2022/09/02 06:24:05;;;;;;;11.20;5.32;;;;;;;24.46;50.62;101388.88;5033710;28;20679;-71
2022/09/02 06:26:31;;;;;;;8.80;5.43;;;;;;;24.57;50.49;101395.31;5033379;28;20080;-69
2022/09/02 06:28:57;;;;;;;17.17;5.75;;;;;;;24.49;50.59;101388.09;5033362;28;20407;-70
2022/09/02 06:31:23;;;;;;;13.00;6.60;;;;;;;24.47;50.55;101388.47;5025408;28;20030;-69
2022/09/02 06:33:52;;;;;;;11.18;5.15;;;;;;;24.35;50.95;101386.81;5013537;28;20034;-69
2022/09/02 06:36:19;;;;;;;15.48;5.93;;;;;;;24.40;50.68;101387.63;5018855;28;20040;-83
2022/09/02 06:38:48;;;;;;;18.08;6.32;;;;;;;24.50;50.43;101378.53;5023518;28;20079;-83
2022/09/02 06:41:18;;;;;;;12.82;5.10;;;;;;;24.57;50.09;101386.94;5032017;28;20618;-69
2022/09/02 06:43:43;;;;;;;9.75;5.50;;;;;;;24.46;50.61;101381.28;5033286;28;20033;-69
2022/09/02 06:46:16;;;;;;;11.70;5.75;;;;;;;24.39;51.06;101386.84;5031661;28;20071;-69
2022/09/02 06:48:41;;;;;;;15.55;5.43;;;;;;;24.46;50.80;101381.28;5026758;28;20034;-83
2022/09/02 06:51:07;;;;;;;14.18;5.95;;;;;;;24.41;50.92;101383.63;5027885;28;20062;-70
2022/09/02 06:53:33;;;;;;;11.00;6.03;;;;;;;24.59;50.46;101373.34;5033180;28;20499;-70
2022/09/02 06:55:58;;;;;;;17.77;6.97;;;;;;;24.63;49.95;101380.53;5032881;28;20048;-80
2022/09/02 06:58:24;;;;;;;10.93;6.90;;;;;;;24.51;50.13;101366.16;5031958;28;20052;-70
2022/09/02 07:00:49;;;;;;;11.05;6.32;;;;;;;24.52;50.00;101367.75;5031346;28;20034;-69
2022/09/02 07:06:09;;;;;;;12.90;6.40;;;;;;;24.42;50.29;101371.31;5030921;28;20069;-67
2022/09/02 07:08:37;;;;;;;16.30;6.90;;;;;;;24.46;50.50;101367.31;5028038;28;20128;-79
2022/09/02 07:11:05;;;;;;;11.75;7.55;;;;;;;24.47;50.24;101366.13;5025949;28;20029;-80
2022/09/02 07:13:32;;;;;;;13.50;6.65;;;;;;;24.41;50.74;101364.91;5031348;28;20033;-78
2022/09/02 07:15:57;;;;;;;9.95;6.18;;;;;;;24.42;50.65;101351.75;5030893;28;20113;-76
2022/09/02 07:18:23;;;;;;;11.88;6.75;;;;;;;24.55;50.40;101341.81;5019571;28;20112;-77
2022/09/02 07:20:49;;;;;;;13.05;6.63;;;;;;;24.53;50.41;101347.78;5012720;28;20017;-77
2022/09/02 07:23:15;;;;;;;34.72;9.32;;;;;;;24.63;50.37;101352.59;5010945;28;20029;-79
2022/09/02 07:25:41;;;;;;;17.08;6.38;;;;;;;24.69;50.51;101357.81;5000455;28;20030;-77
2022/09/02 07:28:08;;;;;;;17.70;6.53;;;;;;;24.71;50.52;101356.25;4996828;28;20464;-76
2022/09/02 07:30:34;;;;;;;20.75;7.40;;;;;;;24.67;50.45;101351.84;4996725;28;20408;-78
2022/09/02 07:33:00;;;;;;;13.43;6.45;;;;;;;24.79;50.03;101346.69;5014924;28;20029;-78
2022/09/02 07:35:25;;;;;;;12.80;6.47;;;;;;;24.92;50.13;101350.69;5015138;28;20036;-78
2022/09/02 07:37:51;;;;;;;9.05;6.40;;;;;;;24.98;49.73;101351.09;5009882;28;20025;-78
2022/09/02 07:40:16;;;;;;;13.98;5.90;;;;;;;25.01;49.78;101349.50;5024621;28;20033;-78
2022/09/02 07:42:42;;;;;;;14.38;7.00;;;;;;;25.05;50.15;101339.16;5026368;28;20204;-79
2022/09/02 07:45:09;;;;;;;16.52;7.05;;;;;;;25.12;49.54;101339.97;5002258;28;20050;-78
2022/09/02 07:47:36;;;;;;;20.38;7.13;;;;;;;25.15;49.58;101332.78;4994613;28;20036;-79
2022/09/02 07:50:03;;;;;;;12.75;7.20;;;;;;;25.18;49.81;101332.00;5010055;28;20108;-76
2022/09/02 07:52:28;;;;;;;20.70;9.98;;;;;;;25.27;49.32;101328.78;5015796;28;20079;-76
2022/09/02 07:54:54;;;;;;;11.98;6.93;;;;;;;25.37;49.54;101336.38;5005456;28;20479;-77
2022/09/02 07:57:20;;;;;;;14.13;6.95;;;;;;;25.40;49.07;101328.00;5014953;28;20025;-79
2022/09/02 07:59:46;;;;;;;12.80;7.95;;;;;;;25.37;49.16;101328.78;5011042;28;20030;-77
2022/09/02 08:02:13;;;;;;;19.67;7.78;;;;;;;25.36;49.22;101320.78;5028353;28;20041;-80
2022/09/02 08:04:39;;;;;;;14.20;7.43;;;;;;;25.39;48.95;101322.78;5031796;28;20541;-79
2022/09/02 08:07:05;;;;;;;13.88;7.65;;;;;;;25.33;48.96;101322.41;5031748;28;20033;-79
2022/09/02 08:09:31;;;;;;;16.63;7.45;;;;;;;25.35;48.98;101319.19;5017970;28;20477;-80
2022/09/02 08:11:57;;;;;;;14.93;7.53;;;;;;;25.30;49.03;101311.19;5006597;28;20244;-80
2022/09/02 08:14:26;;;;;;;12.13;6.95;;;;;;;25.36;48.99;101313.19;5005487;28;20582;-80
2022/09/02 08:16:53;;;;;;;16.20;8.32;;;;;;;25.29;48.89;101313.19;5015223;28;20029;-80
2022/09/02 08:19:18;;;;;;;13.02;6.80;;;;;;;25.25;48.95;101304.03;5028236;28;20053;-80
2022/09/02 08:21:44;;;;;;;14.05;6.97;;;;;;;25.36;48.69;101310.41;5032087;28;20076;-80
2022/09/02 08:24:10;;;;;;;17.15;6.88;;;;;;;25.37;48.85;101312.00;5032142;28;20113;-80
2022/09/02 08:26:36;;;;;;;15.70;6.72;;;;;;;25.31;49.09;101302.41;5032136;28;20021;-80
2022/09/02 08:29:06;;;;;;;12.63;6.82;;;;;;;25.31;48.85;101301.59;5032196;28;20403;-81
2022/09/02 08:31:32;;;;;;;15.60;7.13;;;;;;;25.28;49.23;101296.81;5030785;28;20466;-80
2022/09/02 08:33:59;;;;;;;16.45;6.88;;;;;;;25.40;49.13;101288.03;5032077;28;20021;-80
2022/09/02 08:36:26;;;;;;;18.92;8.02;;;;;;;25.41;49.07;101279.25;5032053;28;20025;-80
2022/09/02 08:38:52;;;;;;;14.32;6.95;;;;;;;25.53;48.59;101283.59;5031947;28;20487;-79
2022/09/02 08:41:22;;;;;;;16.98;7.78;;;;;;;25.59;48.71;101282.00;5030629;28;20033;-81
2022/09/02 08:43:51;;;;;;;19.77;6.90;;;;;;;25.80;48.49;101286.78;5032090;28;20567;-80
2022/09/02 08:46:20;;;;;;;10.83;6.40;;;;;;;25.93;48.44;101292.75;5047843;28;20045;-80
2022/09/02 08:49:00;;;;;;;10.25;5.55;;;;;;;25.88;48.53;101288.34;5050087;28;20271;-80
2022/09/02 08:51:31;;;;;;;14.35;6.60;;;;;;;26.10;48.36;101291.88;5032437;28;20032;-80
2022/09/02 08:54:04;;;;;;;19.25;7.05;;;;;;;26.14;48.68;101281.44;5029763;28;20029;-80
2022/09/02 08:56:31;;;;;;;13.98;6.80;;;;;;;26.25;48.25;101289.81;5030583;28;20457;-80
2022/09/02 08:58:57;;;;;;;12.82;6.63;;;;;;;26.38;47.95;101290.97;5033863;28;20033;-81
2022/09/02 09:01:49;;;;;;;15.95;7.05;;;;;;;26.40;47.80;101288.56;5027452;28;20038;-80
2022/09/02 09:04:30;;;;;;;27.42;7.38;;;;;;;26.45;47.30;101292.94;5014541;28;20448;-79
2022/09/02 09:07:28;;;;;;;17.00;7.30;;;;;;;26.43;47.58;101282.13;5013503;28;20101;-80
2022/09/02 09:09:59;;;;;;;17.88;6.53;;;;;;;26.55;47.21;101266.88;5023182;28;20049;-80
2022/09/02 09:12:46;;;;;;;13.70;6.07;;;;;;;26.65;47.05;101285.59;5017321;28;20026;-80
2022/09/02 09:15:29;;;;;;;12.75;6.65;;;;;;;26.76;46.99;101275.13;5016483;28;20040;-80
2022/09/02 09:17:58;;;;;;;12.68;5.90;;;;;;;26.77;47.24;101278.75;5033189;28;20033;-81
2022/09/02 09:20:26;;;;;;;14.90;7.75;;;;;;;26.77;46.99;101275.94;5033680;28;20033;-80
2022/09/02 09:22:56;;;;;;;13.00;6.10;;;;;;;26.93;46.91;101283.81;5034072;28;20052;-79
2022/09/02 09:25:28;;;;;;;;;;;;;;;26.98;46.45;101284.19;5034814;28;20147;-79
2022/09/02 09:27:58;;;;;;;12.65;7.53;;;;;;;27.12;46.51;101285.28;5025525;28;19914;-79
2022/09/02 09:30:24;;;;;;;23.30;8.18;;;;;;;27.32;45.94;101273.09;5014282;28;20484;-79
2022/09/02 09:32:58;;;;;;;16.80;7.78;;;;;;;27.33;45.86;101260.66;5014331;28;20026;-78
2022/09/02 09:35:26;;;;;;;19.75;8.05;;;;;;;27.30;45.80;101264.31;5014818;28;20034;-80
2022/09/02 09:37:53;;;;;;;13.10;7.93;;;;;;;27.46;44.93;101246.91;5013366;28;20022;-79
2022/09/02 09:40:27;;;;;;;14.30;6.93;;;;;;;27.51;45.06;101240.84;5015685;28;20033;-78
2022/09/02 09:42:59;;;;;;;18.23;7.85;;;;;;;27.64;44.43;101239.06;5014565;28;20022;-79
2022/09/02 09:45:27;;;;;;;19.23;7.75;;;;;;;27.65;44.63;101237.84;5014409;28;20121;-80
2022/09/02 09:48:11;;;;;;;16.33;7.28;;;;;;;27.76;43.89;101237.00;5014488;28;20057;-80
2022/09/02 09:50:37;;;;;;;18.60;7.63;;;;;;;27.93;43.87;101238.78;5032378;28;20030;-79
2022/09/02 09:53:25;;;;;;;11.82;6.65;;;;;;;28.00;43.48;101243.50;5033519;28;20025;-80
2022/09/02 09:56:14;;;;;;;14.88;7.00;;;;;;;28.19;43.43;101248.47;5034101;28;20067;-80
2022/09/02 09:58:40;;;;;;;9.45;7.50;;;;;;;28.38;43.06;101245.03;5029796;28;20045;-80
2022/09/02 10:01:29;;;;;;;14.45;7.03;;;;;;;28.28;42.69;101237.50;5033903;28;20056;-79
2022/09/02 10:04:24;;;;;;;12.88;6.35;;;;;;;28.38;42.29;101238.59;5029517;28;20488;-80
2022/09/02 10:06:50;;;;;;;19.38;7.40;;;;;;;28.48;42.04;101226.41;5014247;28;20029;-80
2022/09/02 10:09:21;;;;;;;16.58;6.63;;;;;;;28.43;42.07;101235.31;5014120;28;20152;-80
2022/09/02 10:12:13;;;;;;;12.18;6.97;;;;;;;28.43;41.52;101233.31;5014040;28;20049;-81
2022/09/02 10:14:47;;;;;;;17.45;8.25;;;;;;;28.12;42.02;101221.28;5026454;28;20121;-80
2022/09/02 10:17:26;;;;;;;11.73;6.40;;;;;;;28.14;42.44;101216.03;5011285;28;20017;-80
2022/09/02 10:19:58;;;;;;;20.50;8.07;;;;;;;28.22;42.37;101213.91;5010016;28;20403;-79
2022/09/02 10:22:52;;;;;;;25.85;8.38;;;;;;;28.16;41.61;101207.16;5013036;28;20590;-80
2022/09/02 10:25:45;;;;;;;14.23;7.28;;;;;;;28.27;41.89;101204.22;5001600;28;20144;-79
2022/09/02 10:28:55;;;;;;;12.27;7.15;;;;;;;28.35;41.33;101198.09;5015992;28;20549;-79
2022/09/02 10:31:30;;;;;;;15.05;6.55;;;;;;;28.53;41.48;101195.00;5013973;28;20038;-79
2022/09/02 10:34:02;;;;;;;12.10;7.13;;;;;;;28.57;41.00;101200.59;5012242;28;20488;-79
2022/09/02 10:37:16;;;;;;;15.65;7.43;;;;;;;28.83;39.91;101193.31;5002607;28;20021;-80
2022/09/02 10:40:12;;;;;;;16.80;6.60;;;;;;;28.83;38.98;101185.69;4958299;28;20102;-79
2022/09/02 10:42:43;;;;;;;12.55;5.18;;;;;;;29.01;39.45;101183.38;5016062;28;20584;-79
2022/09/02 10:45:23;;;;;;;16.55;5.82;;;;;;;29.09;39.67;101188.88;5016038;28;20034;-81
2022/09/02 10:48:28;;;;;;;10.65;5.93;;;;;;;29.21;39.35;101186.22;5015175;28;20025;-79
2022/09/02 10:51:03;;;;;;;14.45;5.85;;;;;;;29.16;38.94;101178.28;4975105;28;20038;-80
2022/09/02 10:53:52;;;;;;;11.10;5.22;;;;;;;29.19;38.47;101174.63;5021607;28;20018;-80
2022/09/02 10:56:22;;;;;;;13.20;6.10;;;;;;;29.38;38.45;101164.59;5031518;28;20049;-80
2022/09/02 10:58:56;;;;;;;15.15;6.22;;;;;;;29.33;39.16;101162.31;5048368;28;20032;-79
2022/09/02 11:01:32;;;;;;;18.05;5.50;;;;;;;29.17;40.04;101165.81;5037470;28;20064;-81
2022/09/02 11:04:07;;;;;;;14.75;6.57;;;;;;;29.13;40.37;101158.66;5015968;28;20242;-81
2022/09/02 11:06:40;;;;;;;11.90;5.43;;;;;;;29.13;40.50;101153.03;5000199;28;20070;-80
2022/09/02 11:09:31;;;;;;;14.52;7.25;;;;;;;28.90;41.02;101154.66;5014705;28;20040;-80
2022/09/02 11:12:10;;;;;;;22.48;7.47;;;;;;;28.97;41.07;101139.66;4994277;28;20523;-79
2022/09/02 11:14:58;;;;;;;15.45;7.30;;;;;;;29.06;41.07;101139.88;4995828;28;20033;-79
2022/09/02 11:17:40;;;;;;;22.33;7.40;;;;;;;29.15;40.79;101139.31;5014483;28;20022;-80
2022/09/02 11:20:29;;;;;;;14.45;6.10;;;;;;;29.06;41.18;101131.44;4994552;28;20049;-79
2022/09/02 11:23:34;;;;;;;17.20;4.80;;;;;;;29.07;41.40;101135.84;5002478;28;20025;-78
2022/09/02 11:26:26;;;;;;;12.43;4.93;;;;;;;29.13;40.97;101131.31;5002104;28;20083;-79
2022/09/02 11:28:53;;;;;;;15.90;5.20;;;;;;;28.59;42.24;101137.09;5010168;28;20549;-79
2022/09/02 11:31:31;;;;;;;17.67;6.07;;;;;;;28.35;42.83;101133.47;5015325;28;20033;-80
2022/09/02 11:34:33;;;;;;;15.27;5.68;;;;;;;28.15;43.39;101127.72;5009404;28;20657;-79